Latest Coastal Weather Observations for Portland Airport

IDV60701

Issued at 10:31 am EDT Wednesday 18 January 2017 (issued every 10 minutes, with the page automatically refreshed every 10 minutes)

About coastal observations | Map of coastal stations | Coastal observations for VIC | Marine services | Other Formats
Station Details ID: 090171 Name: CASHMORE AIRPORT Lat: -38.31 Lon: 141.47 Height: 80.9 m
Data from the previous 72 hours. | See also: Recent months at Portland Airport
Date/Time
EDT
Temp
°C
Wind Pressure Rain since
9am
mm
Weather Cloud Vis
km
Sea
Height
m
Swell
Dir  Spd
kts
Gust
kts
hPa Trend Height
m
Period
s
Dir
18/10:30am 16.8 S 9 15 1017.0 - 0.0 - Partly cloudy 10 - - - -
18/10:00am 16.0 S 10 15 1016.6 - 0.0 - Partly cloudy 10 - - - -
18/09:30am 15.8 S 9 14 1016.2 - 0.0 - Partly cloudy 10 - - - -
18/09:00am 15.4 S 10 16 1016.0 - 0.6 - Cloudy 10 - - - -
18/08:30am 15.5 S 9 13 1015.6 - 0.6 - Partly cloudy 10 - - - -
18/08:00am 15.2 S 9 15 1015.0 - 0.6 - Partly cloudy 10 - - - -
18/07:30am 14.9 S 7 13 1014.5 - 0.6 - Partly cloudy 10 - - - -
18/07:00am 14.6 S 8 13 1014.0 - 0.6 - Partly cloudy 10 - - - -
18/06:30am 14.2 S 7 12 1013.7 - 0.6 - Partly cloudy 10 - - - -
18/06:00am 14.1 SSW 7 12 1013.2 - 0.6 - Mostly clear 10 - - - -
18/05:30am 14.2 SSW 8 13 1012.7 - 0.6 - Partly cloudy 10 - - - -
18/05:00am 14.6 SSW 9 14 1012.2 - 0.6 - Partly cloudy 10 - - - -
18/04:30am 14.5 SSW 7 13 1011.6 - 0.6 - Partly cloudy 10 - - - -
18/04:00am 14.2 SSW 7 13 1011.5 - 0.6 - Partly cloudy 10 - - - -
18/03:30am 13.4 SSW 5 8 1011.0 - 0.6 - Partly cloudy 10 - - - -
18/03:01am 13.0 W 4 7 1011.1 - 0.6 - Partly cloudy 10 - - - -
18/03:00am 13.0 W 4 7 1011.2 - 0.6 - Cloudy 10 - - - -
18/02:30am 13.0 SW 5 9 1010.4 - 0.6 - Partly cloudy 10 - - - -
18/02:17am 12.9 WSW 3 5 1011.7 - 0.6 - Partly cloudy 10 - - - -
18/02:00am 12.9 WSW 6 8 1011.7 - 0.6 - Partly cloudy 10 - - - -
18/01:30am 13.4 SW 9 13 1012.3 - 0.2 - Partly cloudy 10 - - - -
18/01:00am 13.6 SW 10 16 1011.9 - 0.2 - Partly cloudy 10 - - - -
18/12:30am 14.5 SW 8 10 1012.1 - 0.2 - Partly cloudy 10 - - - -
18/12:00am 14.8 SW 8 11 1011.7 - 0.0 - Cloudy 10 - - - -
 
Date/Time
EDT
Temp
°C
Wind Pressure Rain since
9am
mm
Weather Cloud Vis
km
Sea
Height
m
Swell
Dir  Spd
kts
Gust
kts
hPa Trend Height
m
Period
s
Dir
17/11:46pm 14.8 SW 9 12 1011.6 - 0.0 - Partly cloudy 10 - - - -
17/11:30pm 15.2 SW 9 14 1012.0 - 0.0 - Partly cloudy 10 - - - -
17/11:25pm 15.3 SW 10 17 1012.2 - 0.0 - Partly cloudy 10 - - - -
17/11:21pm 15.3 SW 10 17 1012.2 - 0.0 - Partly cloudy 10 - - - -
17/11:00pm 15.5 SW 9 13 1012.4 - 0.0 - Partly cloudy 10 - - - -
17/10:55pm 15.6 SW 7 11 1012.1 - 0.0 - Partly cloudy 10 - - - -
17/10:30pm 15.7 SW 7 10 1012.0 - 0.0 - Partly cloudy 10 - - - -
17/10:00pm 15.9 SW 10 15 1011.9 - 0.0 - Partly cloudy 10 - - - -
17/09:53pm 16.0 SW 11 15 1012.2 - 0.0 - Partly cloudy 10 - - - -
17/09:33pm 16.5 SW 9 12 1012.2 - 0.0 - Partly cloudy 10 - - - -
17/09:30pm 16.5 SW 9 12 1012.0 - 0.0 - Partly cloudy 10 - - - -
17/09:00pm 16.8 SW 6 9 1011.0 - 0.0 - Cloudy 10 - - - -
17/08:30pm 17.0 S 5 7 1009.8 - 0.0 - Partly cloudy 10 - - - -
17/08:23pm 16.9 S 5 7 1009.9 - 0.0 - Partly cloudy 10 - - - -
17/08:00pm 16.9 SSW 7 13 1010.5 - 0.0 - Cloudy 10 - - - -
17/07:30pm 17.3 SW 9 17 1009.6 - 0.0 - Cloudy 10 - - - -
17/07:00pm 17.7 SSW 12 16 1008.8 - 0.0 - Partly cloudy 10 - - - -
17/06:47pm 18.1 SW 12 19 1008.9 - 0.0 - Partly cloudy 10 - - - -
17/06:30pm 18.8 SSW 8 13 1008.1 - 0.0 - Partly cloudy 10 - - - -
17/06:00pm 21.3 SW 7 11 1007.6 - 0.0 - Cloudy 10 - - - -
17/05:30pm 20.6 SW 3 6 1006.8 - 0.0 - Partly cloudy 10 - - - -
17/05:00pm 20.4 S 5 7 1006.6 - 0.0 - Partly cloudy 10 - - - -
17/04:30pm 20.5 S 4 6 1006.7 - 0.0 - Partly cloudy 10 - - - -
17/04:00pm 20.3 S 5 8 1007.0 - 0.0 - Partly cloudy 10 - - - -
17/03:30pm 21.9 SSW 6 8 1007.4 - 0.0 - Partly cloudy 10 - - - -
17/03:00pm 23.0 WSW 7 9 1007.6 - 0.0 - Cloudy 10 - - - -
17/02:30pm 22.8 WSW 7 8 1007.6 - 0.0 - - 10 - - - -
17/02:00pm 22.8 WSW 7 10 1007.8 - 0.0 - - 10 - - - -
17/01:30pm 22.0 SW 6 9 1007.7 - 0.0 - Partly cloudy 10 - - - -
17/01:00pm 22.5 W 9 12 1007.8 - 0.0 - Partly cloudy 10 - - - -
17/12:30pm 23.9 W 9 12 1007.9 - 0.0 - Partly cloudy 10 - - - -
17/12:00pm 25.5 NW 6 9 1007.4 - 0.0 - Cloudy 10 - - - -
17/11:30am 24.4 NNW 7 10 1007.5 - 0.0 - - 10 - - - -
17/11:00am 23.3 NW 7 11 1007.7 - 0.0 - - 10 - - - -
17/10:30am 21.1 WNW 8 11 1008.1 - 0.0 - Partly cloudy 10 - - - -
17/10:14am 20.5 W 11 15 1008.7 - 0.0 - Partly cloudy 10 - - - -
17/10:00am 21.3 W 9 12 1008.5 - 0.0 - Partly cloudy 2 - - - -
17/09:55am 23.0 W 6 10 1008.4 - 0.0 - Partly cloudy 2 - - - -
17/09:30am 22.6 NW 5 6 1008.1 - 0.0 - Partly cloudy 10 - - - -
17/09:00am 22.7 WNW 7 11 1008.7 - 0.2 - Cloudy 10 - - - -
17/08:30am 20.1 NW 5 8 1008.3 - 0.2 - - 10 - - - -
17/08:00am 19.6 NNW 5 7 1007.9 - 0.2 - - 10 - - - -
17/07:30am 17.5 N 5 7 1007.6 - 0.2 - Partly cloudy 10 - - - -
17/07:00am 16.8 N 6 8 1007.4 - 0.2 - Partly cloudy 10 - - - -
17/06:30am 16.3 N 6 7 1007.4 - 0.2 - Cloudy 10 - - - -
17/06:00am 16.0 NNE 8 9 1007.1 - 0.2 - Cloudy 10 - - - -
17/05:30am 16.5 NNE 5 7 1007.5 - 0.2 - - 10 - - - -
17/05:00am 16.3 NNW 4 6 1007.5 - 0.2 - - 10 - - - -
17/04:30am 16.4 NW 5 7 1007.6 - 0.2 - - 10 - - - -
17/04:00am 17.1 N 6 8 1007.7 - 0.2 - - 10 - - - -
17/03:30am 15.8 NW 3 4 1007.9 - 0.2 - - 10 - - - -
17/03:00am 16.2 NNW 5 7 1008.2 - 0.2 - Mostly cloudy 10 - - - -
17/02:30am 16.8 N 6 7 1008.5 - 0.2 - - 10 - - - -
17/02:00am 16.4 N 6 7 1008.6 - 0.2 - - 10 - - - -
17/01:30am 17.3 N 6 8 1008.8 - 0.2 - - 10 - - - -
17/01:00am 17.0 NNW 3 5 1009.0 - 0.2 - - 10 - - - -
17/12:30am 17.2 NW 3 4 1009.2 - 0.2 - - 10 - - - -
17/12:00am 17.9 CALM 0 0 1009.4 - 0.2 - Cloudy 10 - - - -
 
Date/Time
EDT
Temp
°C
Wind Pressure Rain since
9am
mm
Weather Cloud Vis
km
Sea
Height
m
Swell
Dir  Spd
kts
Gust
kts
hPa Trend Height
m
Period
s
Dir
16/11:30pm 18.2 CALM 0 0 1009.7 - 0.2 - - 10 - - - -
16/11:00pm 18.9 NW 5 6 1009.8 - 0.2 - - 10 - - - -
16/10:30pm 18.7 CALM 0 0 1009.9 - 0.2 - - 10 - - - -
16/10:00pm 19.9 WNW 7 10 1009.9 - 0.2 - - 10 - - - -
16/09:30pm 20.3 W 9 12 1010.1 - 0.2 - - 10 - - - -
16/09:00pm 20.4 W 10 13 1009.8 - 0.2 - - 10 - - - -
16/08:30pm 21.7 WNW 9 13 1009.7 - 0.2 - - 10 - - - -
16/08:00pm 23.3 W 13 17 1009.7 - 0.2 - - 10 - - - -
16/07:30pm 25.3 W 10 14 1009.6 - 0.2 - - 10 - - - -
16/07:00pm 25.7 WNW 11 16 1009.1 - 0.2 - - 10 - - - -
16/06:30pm 26.0 W 10 14 1009.5 - 0.2 - - 10 - - - -
16/06:00pm 26.7 W 12 17 1009.9 - 0.2 - - 10 - - - -
16/05:30pm 27.0 W 11 14 1010.1 - 0.2 - - 10 - - - -
16/05:00pm 26.7 WSW 10 13 1010.4 - 0.2 - - 10 - - - -
16/04:30pm 25.7 WSW 9 12 1010.8 - 0.2 - - 10 - - - -
16/04:00pm 26.0 WSW 9 11 1011.1 - 0.2 - - 10 - - - -
16/03:30pm 27.2 WSW 8 12 1011.2 - 0.2 - - 10 - - - -
16/03:00pm 26.5 WSW 6 9 1011.6 - 0.2 - - 10 - - - -
16/02:30pm 25.5 SW 6 10 1012.1 - 0.2 - - 10 - - - -
16/02:00pm 26.2 W 7 10 1012.6 - 0.2 - - 10 - - - -
16/01:30pm 25.3 SW 7 10 1012.9 - 0.2 - - 10 - - - -
16/01:00pm 25.3 W 7 9 1013.1 - 0.2 - - 10 - - - -
16/12:30pm 24.7 W 7 12 1013.3 - 0.2 - - 10 - - - -
16/12:00pm 23.2 NNW 3 7 1013.5 - 0.2 - - 10 - - - -
16/11:30am 21.7 NW 2 6 1013.8 - 0.2 - - 10 - - - -
16/11:00am 20.3 N 3 6 1014.4 - 0.2 - - 10 - - - -
16/10:30am 19.1 NNE 5 8 1014.7 - 0.0 - - 10 - - - -
16/10:00am 17.4 NNE 7 9 1015.0 - 0.0 - - 10 - - - -
16/09:30am 16.5 NE 7 11 1015.2 - 0.0 - - 10 - - - -
16/09:00am 15.1 NE 6 9 1015.3 - 0.0 - - 10 - - - -
16/08:30am 13.2 NNE 6 8 1015.4 - 0.0 - - 10 - - - -
16/08:00am 11.2 NNE 6 7 1015.2 - 0.0 - - 10 - - - -
16/07:30am 9.7 NNE 5 7 1015.1 - 0.0 - - 10 - - - -
16/07:19am 9.5 NNE 5 6 1015.1 - 0.0 - - 10 - - - -
16/07:00am 7.5 N 3 4 1015.1 - 0.0 - - 4 - - - -
16/06:56am 7.7 N 3 4 1015.2 - 0.0 - - 6 - - - -
16/06:30am 8.4 N 4 6 1014.9 - 0.0 - - 10 - - - -
16/06:00am 8.6 N 4 5 1015.0 - 0.0 - - 10 - - - -
16/05:30am 8.7 N 6 7 1015.1 - 0.0 - - 10 - - - -
16/05:00am 8.0 N 6 7 1015.1 - 0.0 - - 10 - - - -
16/04:30am 7.5 N 4 6 1015.0 - 0.0 - - 10 - - - -
16/04:00am 7.4 NNE 4 6 1014.8 - 0.0 - - 10 - - - -
16/03:30am 6.9 CALM 0 0 1014.9 - 0.0 - - 10 - - - -
16/03:00am 6.8 CALM 0 0 1015.3 - 0.0 - - 10 - - - -
16/02:30am 7.4 CALM 0 0 1015.5 - 0.0 - - 10 - - - -
16/02:00am 7.1 CALM 0 0 1016.0 - 0.0 - - 10 - - - -
16/01:30am 8.1 CALM 0 0 1016.2 - 0.0 - - 10 - - - -
16/01:00am 9.2 CALM 0 0 1016.5 - 0.0 - - 10 - - - -
16/12:30am 8.3 CALM 0 0 1016.7 - 0.0 - - 10 - - - -
16/12:00am 9.3 CALM 0 0 1017.1 - 0.0 - - 10 - - - -
 
Date/Time
EDT
Temp
°C
Wind Pressure Rain since
9am
mm
Weather Cloud Vis
km
Sea
Height
m
Swell
Dir  Spd
kts
Gust
kts
hPa Trend Height
m
Period
s
Dir
15/11:30pm 9.5 CALM 0 0 1017.3 - 0.0 - - 10 - - - -
15/11:00pm 10.6 CALM 0 0 1017.5 - 0.0 - - 10 - - - -
15/10:30pm 10.9 SW 2 3 1017.8 - 0.0 - - 10 - - - -
15/10:00pm 11.7 SW 3 5 1017.9 - 0.0 - - 10 - - - -
15/09:30pm 12.9 SW 3 4 1017.9 - 0.0 - - 10 - - - -
15/09:00pm 13.7 SW 5 5 1018.0 - 0.0 - - 10 - - - -
15/08:30pm 15.5 SW 5 7 1017.6 - 0.0 - - 10 - - - -
15/08:00pm 16.3 WSW 6 8 1017.6 - 0.0 - Partly cloudy 10 - - - -
15/07:30pm 16.5 W 7 10 1017.6 - 0.0 - - 10 - - - -
15/07:00pm 16.3 WSW 8 11 1017.8 - 0.0 - Partly cloudy 10 - - - -
15/06:30pm 17.3 SW 8 11 1018.0 - 0.0 - Partly cloudy 10 - - - -
15/06:00pm 17.8 WSW 9 12 1018.1 - 0.0 - - 10 - - - -
15/05:30pm 18.2 WSW 9 13 1018.4 - 0.0 - Partly cloudy 10 - - - -
15/05:00pm 17.3 WSW 8 11 1018.7 - 0.0 - Partly cloudy 10 - - - -
15/04:30pm 17.4 WSW 10 14 1019.0 - 0.0 - Partly cloudy 10 - - - -
15/04:00pm 18.3 WSW 11 13 1019.1 - 0.0 - Partly cloudy 10 - - - -
15/03:30pm 18.1 WSW 10 16 1019.4 - 0.0 - Cloudy 10 - - - -
15/03:00pm 18.0 WSW 10 14 1019.6 - 0.0 - Mostly cloudy 10 - - - -
15/02:30pm 17.5 W 10 13 1019.4 - 0.0 - Partly cloudy 10 - - - -
15/02:00pm 16.4 WSW 9 13 1019.8 - 0.0 - Cloudy 10 - - - -
15/01:30pm 16.2 WSW 10 15 1020.0 - 0.0 - Cloudy 10 - - - -
15/01:00pm 16.4 W 9 14 1020.0 - 0.0 - Cloudy 10 - - - -
15/12:30pm 16.2 W 8 13 1019.9 - 0.0 - Cloudy 10 - - - -
15/12:00pm 16.1 W 9 13 1020.0 - 0.0 - Cloudy 10 - - - -
15/11:30am 15.8 W 8 11 1020.0 - 0.0 - Cloudy 10 - - - -
15/11:00am 16.1 WSW 7 12 1019.9 - 0.0 - Cloudy 10 - - - -

Other Formats:

Comma delimited format used in spreadsheet applications
http://www.bom.gov.au/fwo/IDV60701/IDV60701.94828.axf

JavaScript Object Notation format (JSON) in row-major order
http://www.bom.gov.au/fwo/IDV60701/IDV60701.94828.json